createdAt,value
2023-05-19T00:00:14.985Z,2.60
2023-05-19T00:02:44.707Z,4.20
2023-05-19T00:05:15.370Z,4.20
2023-05-19T00:07:46.211Z,3.00
2023-05-19T00:10:18.412Z,2.90
2023-05-19T00:12:47.351Z,3.87
2023-05-19T00:15:16.927Z,2.87
2023-05-19T00:17:45.851Z,4.60
2023-05-19T00:20:15.965Z,5.43
2023-05-19T00:22:45.378Z,2.50
2023-05-19T00:25:15.501Z,2.73
2023-05-19T00:27:44.294Z,2.60
2023-05-19T00:30:13.466Z,3.40
2023-05-19T00:32:42.182Z,2.90
2023-05-19T00:35:11.778Z,3.60
2023-05-19T00:37:40.434Z,3.00
2023-05-19T00:40:11.718Z,3.23
2023-05-19T00:42:42.969Z,3.07
2023-05-19T00:45:12.061Z,2.57
2023-05-19T00:47:41.275Z,3.07
2023-05-19T00:50:10.660Z,3.57
2023-05-19T00:52:39.436Z,3.13
2023-05-19T00:55:10.048Z,4.03
2023-05-19T00:57:39.289Z,3.57
2023-05-19T01:00:11.892Z,2.83
2023-05-19T01:02:41.098Z,2.90
2023-05-19T01:05:11.094Z,6.20
2023-05-19T01:07:40.039Z,3.37
2023-05-19T01:10:09.370Z,4.37
2023-05-19T01:12:38.450Z,4.07
2023-05-19T01:16:07.084Z,4.00
2023-05-19T01:18:56.994Z,3.50
2023-05-19T01:21:49.446Z,5.30
2023-05-19T01:24:35.658Z,3.50
2023-05-19T01:27:34.089Z,3.67
2023-05-19T01:30:38.451Z,3.90
2023-05-19T01:33:10.863Z,4.63
2023-05-19T01:35:40.933Z,3.67
2023-05-19T01:38:11.957Z,5.00
2023-05-19T01:40:41.943Z,4.07
2023-05-19T01:43:15.046Z,4.37
2023-05-19T01:45:46.680Z,3.87
2023-05-19T01:48:16.513Z,3.33
2023-05-19T01:50:45.752Z,3.90
2023-05-19T01:53:14.440Z,3.40
2023-05-19T01:55:46.525Z,3.47
2023-05-19T01:58:22.175Z,4.07
2023-05-19T02:01:00.219Z,3.83
2023-05-19T02:03:47.296Z,3.70
2023-05-19T02:06:28.277Z,4.43
2023-05-19T02:09:03.905Z,4.20
2023-05-19T02:11:39.125Z,4.00
2023-05-19T02:14:21.945Z,4.10
2023-05-19T02:16:53.894Z,4.37
2023-05-19T02:19:25.188Z,5.00
2023-05-19T02:21:53.932Z,6.17
2023-05-19T02:24:23.101Z,13.23
2023-05-19T02:26:52.371Z,11.20
2023-05-19T02:29:21.178Z,6.27
2023-05-19T02:31:49.944Z,6.37
2023-05-19T02:34:20.167Z,5.70
2023-05-19T02:36:50.106Z,5.27
2023-05-19T02:39:18.790Z,5.67
2023-05-19T02:41:47.564Z,4.97
2023-05-19T02:44:16.254Z,5.20
2023-05-19T02:46:44.954Z,5.17
2023-05-19T02:49:13.690Z,5.00
2023-05-19T02:51:43.778Z,5.27
2023-05-19T02:54:12.418Z,5.00
2023-05-19T02:56:41.079Z,5.40
2023-05-19T02:59:09.755Z,4.87
2023-05-19T03:01:40.606Z,4.27
2023-05-19T03:04:09.553Z,6.03
2023-05-19T03:06:38.922Z,5.90
2023-05-19T03:09:09.068Z,49.33
2023-05-19T03:11:37.787Z,94.23
2023-05-19T03:14:06.481Z,19.87
2023-05-19T03:16:35.261Z,28.33
2023-05-19T03:19:04.071Z,46.57
2023-05-19T03:21:32.740Z,9.67
2023-05-19T03:24:01.701Z,6.00
2023-05-19T03:26:32.253Z,4.17
2023-05-19T03:29:01.187Z,15.90
2023-05-19T03:31:30.778Z,11.60
2023-05-19T03:33:59.483Z,12.30
2023-05-19T03:36:32.317Z,5.73
2023-05-19T03:39:01.107Z,22.87
2023-05-19T03:41:31.465Z,13.53
2023-05-19T03:44:00.164Z,4.70
2023-05-19T03:46:29.007Z,6.03
2023-05-19T03:48:57.808Z,5.60
2023-05-19T03:51:28.768Z,5.50
2023-05-19T03:53:57.615Z,4.50
2023-05-19T03:56:27.883Z,5.20
2023-05-19T03:58:58.018Z,4.60
2023-05-19T04:01:26.619Z,5.30
2023-05-19T04:03:55.334Z,5.93
2023-05-19T04:06:24.293Z,7.03
2023-05-19T04:08:52.899Z,5.27
2023-05-19T04:11:21.715Z,5.40
2023-05-19T04:13:50.366Z,4.47
2023-05-19T04:16:21.523Z,5.10
2023-05-19T04:18:50.362Z,6.27
2023-05-19T04:21:19.070Z,4.90
2023-05-19T04:23:47.724Z,13.37
2023-05-19T04:26:16.667Z,7.60
2023-05-19T04:28:46.163Z,5.53
2023-05-19T04:31:14.967Z,5.47
2023-05-19T04:33:45.050Z,5.20
2023-05-19T04:36:15.051Z,6.17
2023-05-19T04:38:47.175Z,4.53
2023-05-19T04:41:17.101Z,4.47
2023-05-19T04:43:48.915Z,4.28
2023-05-19T04:46:20.732Z,4.00
2023-05-19T04:48:51.574Z,3.60
2023-05-19T04:51:22.620Z,4.00
2023-05-19T04:53:51.971Z,4.57
2023-05-19T04:56:20.768Z,5.57
2023-05-19T04:58:49.541Z,3.83
2023-05-19T05:01:21.916Z,2.93
2023-05-19T05:03:52.089Z,3.97
2023-05-19T05:06:21.084Z,4.67
2023-05-19T05:08:49.762Z,4.40
2023-05-19T05:11:19.458Z,5.65
2023-05-19T05:13:49.628Z,3.00
2023-05-19T05:16:19.031Z,3.93
2023-05-19T05:18:48.265Z,3.07
2023-05-19T05:21:19.163Z,3.67
2023-05-19T05:23:48.422Z,4.73
2023-05-19T05:26:20.227Z,2.77
2023-05-19T05:28:49.059Z,4.93
2023-05-19T05:31:17.874Z,2.90
2023-05-19T05:33:47.069Z,3.40
2023-05-19T05:36:15.819Z,2.67
2023-05-19T05:38:46.073Z,2.60
2023-05-19T05:41:14.802Z,3.40
2023-05-19T05:43:43.831Z,2.30
2023-05-19T05:46:12.485Z,5.03
2023-05-19T05:48:43.008Z,4.10
2023-05-19T05:51:12.328Z,4.67
2023-05-19T05:53:44.766Z,12.40
2023-05-19T05:56:16.598Z,4.23
2023-05-19T05:58:45.402Z,2.97
2023-05-19T06:01:14.117Z,3.33
2023-05-19T06:03:45.770Z,2.57
2023-05-19T06:06:15.015Z,2.27
2023-05-19T06:08:43.683Z,4.47
2023-05-19T06:11:12.322Z,3.13
2023-05-19T06:13:42.615Z,2.40
2023-05-19T06:16:11.251Z,3.20
2023-05-19T06:18:40.475Z,1.70
2023-05-19T06:21:13.962Z,3.37
2023-05-19T06:23:44.968Z,2.50
2023-05-19T06:26:13.860Z,2.10
2023-05-19T06:28:43.883Z,2.53
2023-05-19T06:31:12.573Z,10.43
2023-05-19T06:33:41.306Z,6.07
2023-05-19T06:36:10.929Z,4.33
2023-05-19T06:38:39.597Z,2.77
2023-05-19T06:41:08.628Z,2.30
2023-05-19T06:43:37.261Z,3.20
2023-05-19T06:46:07.492Z,3.17
2023-05-19T06:48:36.100Z,3.40
2023-05-19T06:51:05.009Z,3.63
2023-05-19T06:53:34.853Z,5.63
2023-05-19T06:56:03.539Z,3.00
2023-05-19T06:58:32.232Z,3.17
2023-05-19T07:01:00.863Z,3.53
2023-05-19T07:03:31.568Z,3.13
2023-05-19T07:06:00.521Z,4.83
2023-05-19T07:08:29.493Z,10.40
2023-05-19T07:10:58.259Z,10.13
2023-05-19T07:13:27.639Z,6.23
2023-05-19T07:15:57.144Z,3.40
2023-05-19T07:18:26.122Z,4.87
2023-05-19T07:20:56.370Z,4.00
2023-05-19T07:23:25.065Z,3.43
2023-05-19T07:25:57.215Z,2.97
2023-05-19T07:28:25.988Z,4.83
2023-05-19T07:30:54.657Z,5.13
2023-05-19T07:33:23.935Z,3.50
2023-05-19T07:35:52.567Z,4.00
2023-05-19T07:38:22.646Z,4.37
2023-05-19T07:40:51.375Z,4.73
2023-05-19T07:43:20.049Z,5.77
2023-05-19T07:45:48.760Z,4.57
2023-05-19T07:48:18.991Z,4.67
2023-05-19T07:50:47.769Z,4.93
2023-05-19T07:53:16.927Z,4.60
2023-05-19T07:55:48.251Z,3.30
2023-05-19T07:58:17.636Z,5.43
2023-05-19T08:00:46.362Z,4.87
2023-05-19T08:03:18.098Z,4.93
2023-05-19T08:05:46.926Z,3.73
2023-05-19T08:08:17.013Z,5.93
2023-05-19T08:10:47.173Z,4.70
2023-05-19T08:13:15.876Z,4.27
2023-05-19T08:15:44.773Z,4.63
2023-05-19T08:18:13.662Z,6.73
2023-05-19T08:20:42.578Z,4.63
2023-05-19T08:23:12.424Z,5.40
2023-05-19T08:25:41.094Z,6.97
2023-05-19T08:28:16.329Z,7.70
2023-05-19T08:30:45.108Z,6.27
2023-05-19T08:33:14.349Z,6.37
2023-05-19T08:35:43.194Z,6.80
2023-05-19T08:38:11.967Z,7.53
2023-05-19T08:40:44.087Z,9.50
2023-05-19T08:43:14.529Z,7.57
2023-05-19T08:45:45.330Z,6.25
2023-05-19T08:48:15.488Z,7.77
2023-05-19T08:50:54.408Z,8.03
2023-05-19T08:53:34.054Z,8.77
2023-05-19T08:56:10.613Z,7.57
2023-05-19T08:58:44.261Z,6.47
2023-05-19T09:01:17.119Z,10.07
2023-05-19T09:03:46.827Z,9.03
2023-05-19T09:06:15.527Z,9.57
2023-05-19T09:08:45.169Z,8.63
2023-05-19T09:11:14.239Z,8.30
2023-05-19T09:13:44.503Z,7.50
2023-05-19T09:16:13.476Z,5.97
2023-05-19T09:18:42.688Z,6.57
2023-05-19T09:21:12.095Z,7.27
2023-05-19T09:23:40.719Z,8.60
2023-05-19T09:26:09.291Z,8.40
2023-05-19T09:28:38.601Z,7.20
2023-05-19T09:31:10.828Z,9.27
2023-05-19T09:33:45.584Z,11.30
2023-05-19T09:36:15.049Z,7.50
2023-05-19T09:38:43.727Z,9.73
2023-05-19T09:41:15.872Z,8.40
2023-05-19T09:43:44.597Z,7.63
2023-05-19T09:46:15.997Z,8.53
2023-05-19T09:48:45.134Z,7.90
2023-05-19T09:51:14.001Z,8.50
2023-05-19T09:53:45.088Z,7.03
2023-05-19T09:56:16.297Z,9.52
2023-05-19T09:58:44.917Z,9.30
2023-05-19T10:01:15.391Z,6.95
2023-05-19T10:03:45.315Z,9.60
2023-05-19T10:06:15.789Z,9.38
2023-05-19T10:08:45.319Z,7.05
2023-05-19T10:11:14.764Z,6.82
2023-05-19T10:13:44.078Z,5.75
2023-05-19T10:16:16.696Z,8.07
2023-05-19T10:18:46.079Z,7.43
2023-05-19T10:21:16.292Z,9.32
2023-05-19T10:23:44.964Z,7.47
2023-05-19T10:26:14.716Z,5.88
2023-05-19T10:28:46.107Z,9.93
2023-05-19T10:31:23.300Z,6.93
2023-05-19T10:34:03.832Z,6.35
2023-05-19T10:36:46.149Z,6.70
2023-05-19T10:39:22.563Z,5.32
2023-05-19T10:42:05.618Z,8.73
2023-05-19T10:44:59.958Z,7.63
2023-05-19T10:47:30.877Z,5.45
2023-05-19T10:50:02.355Z,5.18
2023-05-19T10:52:33.174Z,6.53
2023-05-19T10:55:03.051Z,6.18
2023-05-19T10:57:33.237Z,6.97
2023-05-19T11:00:11.472Z,5.85
2023-05-19T11:02:43.080Z,10.40
2023-05-19T11:05:14.711Z,14.95
2023-05-19T11:07:45.013Z,13.90
2023-05-19T11:10:14.610Z,10.85
2023-05-19T11:12:44.512Z,7.32
2023-05-19T11:15:15.934Z,8.13
2023-05-19T11:17:50.047Z,4.47
2023-05-19T11:20:26.773Z,7.50
2023-05-19T11:23:09.408Z,5.93
2023-05-19T11:25:45.987Z,6.55
2023-05-19T11:28:16.662Z,7.57
2023-05-19T11:30:49.498Z,6.60
2023-05-19T11:33:20.981Z,8.90
2023-05-19T11:35:51.663Z,6.97
2023-05-19T11:38:21.039Z,6.88
2023-05-19T11:40:55.158Z,7.88
2023-05-19T11:43:25.634Z,5.47
2023-05-19T11:45:56.081Z,5.28
2023-05-19T11:48:27.992Z,3.90
2023-05-19T11:50:57.043Z,4.35
2023-05-19T11:53:25.744Z,6.50
2023-05-19T11:55:54.305Z,5.63
2023-05-19T11:58:28.098Z,5.25
2023-05-19T12:00:56.868Z,4.72
2023-05-19T12:03:28.631Z,6.45
2023-05-19T12:05:57.668Z,8.00
2023-05-19T12:08:27.676Z,7.28
2023-05-19T12:10:56.411Z,5.32
2023-05-19T12:13:25.086Z,5.75
2023-05-19T12:15:54.558Z,6.10
2023-05-19T12:18:23.585Z,6.20
2023-05-19T12:20:53.740Z,5.00
2023-05-19T12:23:22.544Z,5.30
2023-05-19T12:25:51.935Z,7.53
2023-05-19T12:28:21.385Z,4.70
2023-05-19T12:30:52.387Z,4.55
2023-05-19T12:33:21.178Z,5.88
2023-05-19T12:35:51.173Z,5.25
2023-05-19T12:38:22.086Z,9.05
2023-05-19T12:40:51.945Z,5.47
2023-05-19T12:43:23.785Z,5.05
2023-05-19T12:45:52.806Z,4.70
2023-05-19T12:48:37.429Z,6.28
2023-05-19T12:51:14.729Z,6.70
2023-05-19T12:53:44.856Z,4.80
2023-05-19T12:56:15.280Z,4.30
2023-05-19T12:58:44.253Z,5.25
2023-05-19T13:01:17.923Z,6.18
2023-05-19T13:03:46.945Z,6.07
2023-05-19T13:06:15.799Z,7.75
2023-05-19T13:08:48.212Z,4.85
2023-05-19T13:11:16.824Z,7.25
2023-05-19T13:13:45.658Z,7.25
2023-05-19T13:16:14.317Z,4.88
2023-05-19T13:18:42.999Z,5.40
2023-05-19T13:21:12.266Z,4.65
2023-05-19T13:23:41.237Z,6.10
2023-05-19T13:26:13.578Z,7.22
2023-05-19T13:28:42.203Z,5.45
2023-05-19T13:31:11.046Z,8.50
2023-05-19T13:33:39.636Z,7.60
2023-05-19T13:36:08.674Z,5.10
2023-05-19T13:38:37.246Z,6.05
2023-05-19T13:41:05.998Z,4.70
2023-05-19T13:43:36.095Z,4.55
2023-05-19T13:46:05.077Z,7.55
2023-05-19T13:48:33.685Z,4.88
2023-05-19T13:51:02.724Z,5.75
2023-05-19T13:53:32.996Z,5.80
2023-05-19T13:56:02.377Z,6.65
2023-05-19T13:58:31.031Z,4.20
2023-05-19T14:01:01.286Z,6.70
2023-05-19T14:03:30.030Z,4.78
2023-05-19T14:05:58.793Z,6.82
2023-05-19T14:08:28.298Z,4.90
2023-05-19T14:10:57.489Z,5.13
2023-05-19T14:13:33.658Z,6.10
2023-05-19T14:16:05.848Z,4.28
2023-05-19T14:18:34.642Z,4.93
2023-05-19T14:21:03.344Z,7.68
2023-05-19T14:23:33.188Z,4.75
2023-05-19T14:26:01.980Z,4.82
2023-05-19T14:28:30.646Z,7.00
2023-05-19T14:31:00.149Z,5.03
2023-05-19T14:33:34.924Z,6.03
2023-05-19T14:36:05.666Z,7.97
2023-05-19T14:38:34.264Z,6.10
2023-05-19T14:41:02.951Z,5.60
2023-05-19T14:43:31.599Z,7.85
2023-05-19T14:46:00.353Z,5.22
2023-05-19T14:48:30.552Z,4.45
2023-05-19T14:50:59.994Z,5.85
2023-05-19T14:53:28.773Z,6.10
2023-05-19T14:55:57.497Z,8.55
2023-05-19T14:58:28.216Z,8.00
2023-05-19T15:01:00.491Z,7.70
2023-05-19T15:03:30.752Z,6.90
2023-05-19T15:05:59.562Z,6.95
2023-05-19T15:08:28.588Z,6.75
2023-05-19T15:10:57.144Z,6.07
2023-05-19T15:13:26.979Z,9.50
2023-05-19T15:16:08.441Z,6.07
2023-05-19T15:18:46.295Z,5.10
2023-05-19T15:21:14.981Z,5.18
2023-05-19T15:23:43.529Z,7.47
2023-05-19T15:26:12.283Z,7.07
2023-05-19T15:28:45.184Z,5.00
2023-05-19T15:31:14.052Z,7.43
2023-05-19T15:33:42.715Z,6.15
2023-05-19T15:36:16.845Z,6.57
2023-05-19T15:38:45.580Z,9.10
2023-05-19T15:41:14.351Z,9.98
2023-05-19T15:43:43.086Z,7.68
2023-05-19T15:46:13.463Z,6.22
2023-05-19T15:48:42.269Z,8.05
2023-05-19T15:51:12.955Z,9.05
2023-05-19T15:53:41.916Z,6.82
2023-05-19T15:56:11.004Z,7.50
2023-05-19T15:58:39.826Z,6.85
2023-05-19T16:01:08.759Z,8.52
2023-05-19T16:03:38.085Z,7.47
2023-05-19T16:06:09.611Z,8.23
2023-05-19T16:08:40.175Z,8.13
2023-05-19T16:11:09.112Z,6.03
2023-05-19T16:13:38.057Z,6.82
2023-05-19T16:16:07.808Z,7.57
2023-05-19T16:18:36.957Z,8.55
2023-05-19T16:21:19.720Z,8.32
2023-05-19T16:23:53.508Z,11.10
2023-05-19T16:26:24.517Z,13.18
2023-05-19T16:28:53.406Z,6.63
2023-05-19T16:31:22.241Z,10.02
2023-05-19T16:48:26.218Z,7.25
2023-05-19T16:50:55.156Z,7.93
2023-05-19T16:53:24.104Z,11.07
2023-05-19T16:55:53.112Z,8.38
2023-05-19T16:58:22.072Z,10.38
2023-05-19T17:00:53.737Z,11.60
2023-05-19T17:03:22.980Z,9.90
2023-05-19T17:05:56.301Z,10.40
2023-05-19T17:08:25.343Z,9.57
2023-05-19T17:10:54.209Z,10.05
2023-05-19T17:13:25.518Z,8.27
2023-05-19T17:26:51.046Z,7.43
2023-05-19T17:29:22.092Z,9.30
2023-05-19T17:31:51.540Z,9.80
2023-05-19T17:34:20.562Z,11.77
2023-05-19T17:36:50.075Z,10.10
2023-05-19T17:39:20.627Z,11.50
2023-05-19T17:41:50.695Z,9.43
2023-05-19T17:44:19.360Z,7.95
2023-05-19T17:46:48.158Z,9.30
2023-05-19T17:49:16.948Z,13.27
2023-05-19T17:51:46.268Z,16.08
2023-05-19T17:54:15.452Z,18.08
2023-05-19T17:56:45.836Z,16.30
2023-05-19T17:59:16.621Z,16.15
2023-05-19T18:01:46.619Z,16.90
2023-05-19T18:04:16.407Z,15.18
2023-05-19T18:06:46.548Z,12.70
2023-05-19T18:09:22.772Z,11.15
2023-05-19T18:11:52.222Z,13.27
2023-05-19T18:14:22.273Z,13.68
2023-05-19T18:16:51.227Z,11.55
2023-05-19T18:19:19.969Z,9.70
2023-05-19T18:21:48.613Z,21.08
2023-05-19T18:24:17.185Z,16.80
2023-05-19T18:26:46.049Z,16.73
2023-05-19T18:29:15.101Z,13.10
2023-05-19T18:31:45.239Z,11.85
2023-05-19T18:34:14.227Z,18.83
2023-05-19T18:36:43.389Z,17.58
2023-05-19T18:39:17.869Z,16.83
2023-05-19T18:41:47.637Z,14.03
2023-05-19T18:44:16.775Z,13.67
2023-05-19T18:46:47.069Z,15.63
2023-05-19T18:49:15.927Z,16.05
2023-05-19T18:51:44.531Z,16.65
2023-05-19T18:54:13.166Z,17.90
2023-05-19T18:56:42.028Z,18.23
2023-05-19T18:59:11.392Z,16.47
2023-05-19T19:01:40.614Z,14.23
2023-05-19T19:04:10.861Z,13.10
2023-05-19T19:06:39.897Z,13.47
2023-05-19T19:09:09.354Z,13.60
2023-05-19T19:11:37.981Z,16.75
2023-05-19T19:14:06.587Z,13.17
2023-05-19T19:16:35.316Z,16.17
2023-05-19T19:19:04.159Z,11.55
2023-05-19T19:21:34.504Z,15.10
2023-05-19T19:24:03.340Z,12.88
2023-05-19T19:26:31.990Z,13.27
2023-05-19T19:29:00.658Z,13.43
2023-05-19T19:31:29.992Z,9.95
2023-05-19T19:34:03.208Z,11.97
2023-05-19T19:36:32.106Z,12.55
2023-05-19T19:39:02.143Z,15.27
2023-05-19T19:41:30.762Z,11.30
2023-05-19T19:43:59.380Z,13.50
2023-05-19T19:46:28.203Z,12.68
2023-05-19T19:48:59.410Z,11.47
2023-05-19T19:51:28.423Z,14.38
2023-05-19T19:53:57.035Z,12.30
2023-05-19T19:56:27.811Z,12.88
2023-05-19T19:58:59.020Z,13.55
2023-05-19T20:01:28.310Z,12.15
2023-05-19T20:03:57.756Z,13.13
2023-05-19T20:06:26.705Z,15.48
2023-05-19T20:08:55.354Z,19.25
2023-05-19T20:11:24.689Z,18.93
2023-05-19T20:13:54.905Z,19.08
2023-05-19T20:16:24.447Z,34.77
2023-05-19T20:18:53.619Z,35.57
2023-05-19T20:21:22.231Z,16.97
2023-05-19T20:23:51.439Z,28.48
2023-05-19T20:26:23.100Z,27.43
2023-05-19T20:28:51.778Z,23.87
2023-05-19T20:31:23.801Z,25.07
2023-05-19T20:33:52.444Z,25.13
2023-05-19T20:36:21.224Z,19.67
2023-05-19T20:38:49.828Z,21.23
2023-05-19T20:41:18.483Z,15.15
2023-05-19T20:43:47.041Z,15.67
2023-05-19T20:46:15.713Z,15.77
2023-05-19T20:49:02.518Z,16.00
2023-05-19T20:51:31.649Z,21.87
2023-05-19T20:54:03.151Z,21.60
2023-05-19T20:56:31.773Z,19.47
2023-05-19T20:59:00.408Z,19.90
2023-05-19T21:01:30.146Z,17.52
2023-05-19T21:04:00.370Z,21.10
2023-05-19T21:06:29.257Z,16.53
2023-05-19T21:08:57.969Z,17.87
2023-05-19T21:11:26.648Z,14.90
2023-05-19T21:13:57.122Z,15.70
2023-05-19T21:16:26.349Z,13.53
2023-05-19T21:18:55.331Z,13.13
2023-05-19T21:21:26.053Z,17.40
2023-05-19T21:23:54.877Z,15.23
2023-05-19T21:26:23.776Z,14.33
2023-05-19T21:28:52.745Z,19.37
2023-05-19T21:31:21.555Z,20.03
2023-05-19T21:33:50.417Z,16.93
2023-05-19T21:36:19.055Z,13.33
2023-05-19T21:38:49.215Z,12.17
2023-05-19T21:41:17.979Z,15.93
2023-05-19T21:43:47.194Z,13.43
2023-05-19T21:46:16.673Z,12.87
2023-05-19T21:48:45.318Z,14.10
2023-05-19T21:51:14.679Z,12.03
2023-05-19T21:53:43.414Z,13.37
2023-05-19T21:56:13.458Z,10.47
2023-05-19T21:58:42.183Z,8.83
2023-05-19T22:01:10.875Z,10.70
2023-05-19T22:03:39.559Z,10.33
2023-05-19T22:06:09.736Z,10.27
2023-05-19T22:08:38.451Z,11.83
2023-05-19T22:11:07.355Z,9.40
2023-05-19T22:13:41.373Z,10.93
2023-05-19T22:16:12.402Z,10.37
2023-05-19T22:18:41.192Z,9.70
2023-05-19T22:21:12.971Z,27.27
2023-05-19T22:23:41.682Z,9.37
2023-05-19T22:26:10.390Z,8.63
2023-05-19T22:28:40.653Z,12.80
2023-05-19T22:31:09.625Z,18.20
2023-05-19T22:33:38.379Z,12.20
2023-05-19T22:36:08.608Z,10.37
2023-05-19T22:38:37.274Z,17.33
2023-05-19T22:41:08.529Z,12.93
2023-05-19T22:43:37.364Z,15.80
2023-05-19T22:46:07.691Z,19.90
2023-05-19T22:48:36.483Z,15.17
2023-05-19T22:51:05.797Z,15.77
2023-05-19T22:53:34.491Z,15.03
2023-05-19T22:56:03.217Z,15.87
2023-05-19T22:58:37.016Z,12.03
2023-05-19T23:01:07.412Z,20.07
2023-05-19T23:03:36.880Z,12.77
2023-05-19T23:06:05.866Z,10.43
2023-05-19T23:08:34.534Z,10.67
2023-05-19T23:11:03.652Z,10.50
2023-05-19T23:13:32.991Z,8.40
2023-05-19T23:16:01.714Z,10.83
2023-05-19T23:18:31.895Z,8.33
2023-05-19T23:21:00.552Z,10.50
2023-05-19T23:23:29.402Z,9.17
2023-05-19T23:25:58.225Z,7.57
2023-05-19T23:28:26.857Z,8.27
2023-05-19T23:30:56.289Z,8.30
2023-05-19T23:33:25.051Z,8.73
2023-05-19T23:35:56.744Z,8.83
2023-05-19T23:38:25.515Z,11.00
2023-05-19T23:40:54.177Z,12.30
2023-05-19T23:43:22.860Z,9.73
2023-05-19T23:45:51.546Z,9.90
2023-05-19T23:48:20.213Z,10.57
2023-05-19T23:50:48.899Z,11.40
2023-05-19T23:53:19.097Z,11.30
2023-05-19T23:55:47.751Z,10.10
2023-05-19T23:58:16.859Z,8.80
